Time;durP1;ratioP1;P1;durP2;ratioP2;P2;SDS_P1;SDS_P2;PMS_P1;PMS_P2;Temp;Humidity;BMP_temperature;BMP_pressure;BME280_temperature;BME280_humidity;BME280_pressure;Samples;Min_cycle;Max_cycle;Signal;HPM_P1;HPM_P2
2022/05/19 00:02:12;;;;;;;5.57;4.32;;;25.70;55.40;;;;;;5011250;28;20084;-78
2022/05/19 00:04:39;;;;;;;5.30;3.83;;;25.60;55.30;;;;;;5024751;28;20030;-77
2022/05/19 00:07:05;;;;;;;5.25;3.92;;;25.60;55.40;;;;;;5025827;28;20076;-77
2022/05/19 00:09:31;;;;;;;5.65;3.92;;;25.60;55.40;;;;;;5011205;28;20053;-77
2022/05/19 00:12:00;;;;;;;5.18;4.05;;;25.60;55.40;;;;;;5027891;28;20481;-76
2022/05/19 00:14:26;;;;;;;5.43;4.45;;;25.50;55.40;;;;;;5027019;28;20075;-77
2022/05/19 00:16:56;;;;;;;5.80;3.88;;;25.50;55.50;;;;;;5049723;28;20124;-77
2022/05/19 00:19:22;;;;;;;5.35;4.05;;;25.50;55.50;;;;;;4995781;28;20038;-77
2022/05/19 00:21:48;;;;;;;5.90;4.15;;;25.40;55.40;;;;;;5020418;28;20033;-76
2022/05/19 00:24:14;;;;;;;5.32;3.92;;;25.40;55.50;;;;;;5028705;28;20045;-77
2022/05/19 00:26:41;;;;;;;6.00;4.20;;;25.40;55.60;;;;;;5020348;28;20026;-77
2022/05/19 00:29:07;;;;;;;5.45;4.28;;;25.30;55.50;;;;;;5022197;28;20036;-77
2022/05/19 00:31:33;;;;;;;5.05;4.10;;;25.30;55.60;;;;;;5026035;28;20124;-77
2022/05/19 00:34:01;;;;;;;5.30;4.10;;;25.30;55.60;;;;;;5029315;28;20038;-77
2022/05/19 00:36:32;;;;;;;5.57;3.97;;;25.30;55.70;;;;;;5019961;28;20029;-78
2022/05/19 00:39:00;;;;;;;4.60;3.78;;;25.20;55.70;;;;;;5005369;28;20436;-77
2022/05/19 00:41:27;;;;;;;5.82;4.38;;;25.20;55.70;;;;;;5025483;28;20033;-79
2022/05/19 00:44:02;;;;;;;5.32;4.05;;;25.20;55.70;;;;;;5009514;28;20044;-76
2022/05/19 00:46:32;;;;;;;;;;;25.10;55.70;;;;;;5027818;28;20026;-78
2022/05/19 00:49:13;;;;;;;4.75;3.40;;;25.10;55.70;;;;;;5044082;28;19909;-77
2022/05/19 00:51:53;;;;;;;5.35;3.85;;;25.10;55.80;;;;;;5028599;28;20112;-77
2022/05/19 00:54:24;;;;;;;5.18;3.95;;;25.00;55.80;;;;;;5023349;28;20032;-77
2022/05/19 00:57:21;;;;;;;5.35;4.03;;;25.00;55.90;;;;;;5007196;28;20080;-77
2022/05/19 00:59:52;;;;;;;6.00;4.03;;;24.90;56.00;;;;;;5025250;28;20026;-77
2022/05/19 01:02:22;;;;;;;5.97;4.43;;;24.90;55.90;;;;;;5018090;28;20045;-77
2022/05/19 01:05:01;;;;;;;6.78;5.10;;;24.90;56.00;;;;;;5026582;28;20044;-77
2022/05/19 01:07:32;;;;;;;6.03;4.63;;;24.80;56.00;;;;;;5039132;28;20056;-77
2022/05/19 01:09:59;;;;;;;6.28;4.75;;;24.80;56.00;;;;;;5024256;28;20049;-77
2022/05/19 01:12:28;;;;;;;5.82;4.32;;;24.80;56.10;;;;;;5027012;28;20386;-78
2022/05/19 01:14:53;;;;;;;6.38;4.65;;;24.80;56.10;;;;;;5025425;28;20044;-78
2022/05/19 01:17:19;;;;;;;6.10;4.70;;;24.80;56.10;;;;;;5026739;28;20026;-77
2022/05/19 01:19:55;;;;;;;6.43;5.05;;;24.70;56.10;;;;;;5010763;28;20508;-76
2022/05/19 01:22:34;;;;;;;6.57;5.22;;;24.70;56.20;;;;;;5026204;28;20033;-76
2022/05/19 01:25:18;;;;;;;5.82;4.80;;;24.70;56.30;;;;;;5025660;28;20036;-76
2022/05/19 01:27:44;;;;;;;5.72;4.43;;;24.60;56.30;;;;;;5023873;28;20037;-77
2022/05/19 01:30:11;;;;;;;6.07;4.70;;;24.60;56.20;;;;;;5001360;28;20041;-77
2022/05/19 01:32:37;;;;;;;6.20;5.00;;;24.60;56.30;;;;;;5026553;28;20466;-77
2022/05/19 01:35:04;;;;;;;5.75;4.63;;;24.60;56.40;;;;;;5012881;28;20029;-77
2022/05/19 01:37:32;;;;;;;6.38;5.15;;;24.60;56.40;;;;;;5014500;28;20412;-78
2022/05/19 01:40:24;;;;;;;6.50;5.13;;;24.50;56.40;;;;;;5024453;28;20084;-77
2022/05/19 01:43:04;;;;;;;6.07;4.80;;;24.50;56.50;;;;;;5027441;28;20140;-77
2022/05/19 01:45:47;;;;;;;6.20;5.05;;;24.50;56.50;;;;;;5029196;28;20029;-78
2022/05/19 01:48:24;;;;;;;6.18;4.65;;;24.50;56.60;;;;;;5027862;28;20029;-77
2022/05/19 01:50:54;;;;;;;6.53;4.45;;;24.40;56.60;;;;;;5027499;28;20061;-77
2022/05/19 01:53:40;;;;;;;6.00;5.35;;;24.40;56.60;;;;;;5028710;28;20777;-77
2022/05/19 01:56:34;;;;;;;6.45;5.00;;;24.40;56.70;;;;;;5018847;28;20482;-77
2022/05/19 01:58:59;;;;;;;7.18;5.53;;;24.40;56.70;;;;;;5028258;28;20072;-76
2022/05/19 02:01:27;;;;;;;6.65;5.25;;;24.30;56.70;;;;;;5022263;28;20034;-77
2022/05/19 02:04:05;;;;;;;7.53;5.32;;;24.30;56.70;;;;;;5020162;28;20040;-76
2022/05/19 02:06:53;;;;;;;6.43;5.18;;;24.30;56.80;;;;;;5039297;28;20565;-77
2022/05/19 02:09:25;;;;;;;6.20;5.28;;;24.20;56.80;;;;;;5021560;28;20137;-76
2022/05/19 02:11:54;;;;;;;6.80;5.47;;;24.20;56.80;;;;;;5023419;28;20044;-77
2022/05/19 02:14:27;;;;;;;6.70;5.47;;;24.20;56.80;;;;;;5008672;28;20521;-77
2022/05/19 02:16:54;;;;;;;7.65;5.32;;;24.20;56.90;;;;;;5025741;28;20100;-77
2022/05/19 02:19:24;;;;;;;6.40;5.03;;;24.10;56.80;;;;;;5017426;28;20088;-79
2022/05/19 02:21:52;;;;;;;7.47;5.82;;;24.10;56.90;;;;;;5027365;28;20040;-77
2022/05/19 02:24:22;;;;;;;6.88;5.43;;;24.10;56.90;;;;;;5028656;28;20037;-77
2022/05/19 02:26:48;;;;;;;7.55;5.53;;;24.10;57.00;;;;;;5024437;28;20462;-77
2022/05/19 02:29:22;;;;;;;7.15;5.95;;;24.00;57.00;;;;;;5030565;28;20025;-78
2022/05/19 02:31:48;;;;;;;7.10;6.20;;;24.00;57.00;;;;;;5022458;28;20113;-78
2022/05/19 02:34:14;;;;;;;8.18;6.47;;;24.00;57.00;;;;;;5015789;28;20029;-77
2022/05/19 02:36:41;;;;;;;7.18;5.80;;;24.00;57.10;;;;;;5056075;28;20086;-77
2022/05/19 02:39:08;;;;;;;7.47;6.05;;;24.00;57.10;;;;;;5000528;28;20104;-76
2022/05/19 02:41:34;;;;;;;7.40;6.10;;;24.00;57.20;;;;;;5021670;28;20025;-77
2022/05/19 02:44:00;;;;;;;7.75;6.43;;;24.00;57.20;;;;;;5028278;28;20030;-78
2022/05/19 02:46:26;;;;;;;6.95;5.90;;;23.90;57.20;;;;;;5013726;28;20036;-77
2022/05/19 02:48:52;;;;;;;7.40;5.97;;;23.90;57.20;;;;;;5029336;28;20038;-76
2022/05/19 02:51:18;;;;;;;7.15;5.97;;;23.90;57.30;;;;;;5028147;28;20033;-77
2022/05/19 02:53:43;;;;;;;7.68;6.38;;;23.80;57.20;;;;;;5057415;28;20079;-76
2022/05/19 02:56:09;;;;;;;7.25;6.03;;;23.80;57.30;;;;;;5013169;28;20126;-77
2022/05/19 02:58:35;;;;;;;7.45;6.10;;;23.80;57.30;;;;;;4997733;28;20025;-77
2022/05/19 03:01:01;;;;;;;7.28;6.22;;;23.80;57.40;;;;;;5023591;28;20096;-77
2022/05/19 03:03:27;;;;;;;7.25;6.30;;;23.80;57.50;;;;;;5018980;28;20057;-77
2022/05/19 03:05:53;;;;;;;7.15;6.15;;;23.80;57.50;;;;;;5026304;28;20026;-77
2022/05/19 03:08:21;;;;;;;7.63;6.25;;;23.70;57.40;;;;;;5004648;28;20091;-77
2022/05/19 03:10:46;;;;;;;8.15;6.60;;;23.70;57.50;;;;;;5001504;28;20141;-77
2022/05/19 03:13:19;;;;;;;8.05;6.97;;;23.70;57.50;;;;;;5011252;28;20050;-77
2022/05/19 03:15:45;;;;;;;8.15;5.93;;;23.70;57.60;;;;;;5022784;28;20084;-76
2022/05/19 03:18:11;;;;;;;7.28;6.18;;;23.70;57.60;;;;;;5021261;28;20053;-77
2022/05/19 03:20:36;;;;;;;6.85;6.13;;;23.60;57.60;;;;;;5044643;28;20037;-77
2022/05/19 03:23:02;;;;;;;6.85;6.15;;;23.60;57.60;;;;;;5012834;28;20049;-77
2022/05/19 03:25:28;;;;;;;7.88;6.13;;;23.60;57.70;;;;;;5011441;28;20375;-77
2022/05/19 03:27:53;;;;;;;7.25;6.40;;;23.60;57.70;;;;;;5028644;28;20025;-76
2022/05/19 03:30:19;;;;;;;8.43;6.45;;;23.60;57.70;;;;;;5039042;28;20060;-77
2022/05/19 03:32:45;;;;;;;7.18;5.93;;;23.50;57.70;;;;;;5010474;28;20032;-76
2022/05/19 03:35:13;;;;;;;8.23;6.90;;;23.50;57.70;;;;;;5015230;28;20038;-76
2022/05/19 03:37:39;;;;;;;7.10;6.07;;;23.50;57.80;;;;;;5036379;28;20447;-77
2022/05/19 03:40:06;;;;;;;7.50;6.50;;;23.50;57.90;;;;;;5023576;28;20069;-76
2022/05/19 03:42:32;;;;;;;7.47;5.90;;;23.40;57.80;;;;;;5023382;28;20029;-76
2022/05/19 03:44:58;;;;;;;7.47;6.28;;;23.40;57.80;;;;;;5055586;28;20051;-77
2022/05/19 03:47:23;;;;;;;7.50;6.25;;;23.40;57.80;;;;;;5003340;28;20121;-77
2022/05/19 03:49:49;;;;;;;7.55;5.95;;;23.40;57.90;;;;;;5023666;28;20103;-77
2022/05/19 03:52:15;;;;;;;7.38;6.65;;;23.40;57.90;;;;;;4988207;28;20120;-76
2022/05/19 03:54:44;;;;;;;7.07;6.20;;;23.30;57.90;;;;;;5038653;28;20132;-78
2022/05/19 03:57:12;;;;;;;7.50;6.22;;;23.30;57.90;;;;;;5024901;28;20030;-77
2022/05/19 03:59:38;;;;;;;7.50;6.30;;;23.30;57.90;;;;;;5027487;28;20037;-78
2022/05/19 04:02:04;;;;;;;7.25;6.13;;;23.30;57.80;;;;;;5042815;28;20046;-77
2022/05/19 04:04:31;;;;;;;7.00;5.90;;;23.30;57.90;;;;;;5017579;28;20024;-76
2022/05/19 04:06:56;;;;;;;7.10;6.05;;;23.30;57.90;;;;;;5025120;28;20056;-77
2022/05/19 04:09:22;;;;;;;6.68;5.80;;;23.30;57.90;;;;;;5043382;28;20072;-77
2022/05/19 04:11:49;;;;;;;8.15;6.13;;;23.20;57.80;;;;;;5025150;28;20112;-77
2022/05/19 04:14:17;;;;;;;6.95;5.57;;;23.20;57.80;;;;;;5024522;28;20462;-77
2022/05/19 04:16:43;;;;;;;7.78;5.57;;;23.20;57.80;;;;;;5011876;28;20061;-77
2022/05/19 04:19:09;;;;;;;6.68;5.55;;;23.20;57.90;;;;;;5020935;28;20037;-77
2022/05/19 04:21:35;;;;;;;6.50;5.22;;;23.20;58.00;;;;;;5007789;28;20390;-76
2022/05/19 04:24:00;;;;;;;6.80;5.20;;;23.20;58.00;;;;;;5021440;28;20026;-77
2022/05/19 04:26:27;;;;;;;6.50;5.25;;;23.20;58.00;;;;;;5021540;28;20033;-77
2022/05/19 04:28:52;;;;;;;6.72;5.50;;;23.10;57.90;;;;;;5022743;28;20049;-76
2022/05/19 04:31:18;;;;;;;6.43;5.50;;;23.20;58.00;;;;;;5015650;28;20383;-76
2022/05/19 04:33:44;;;;;;;6.20;4.97;;;23.20;58.00;;;;;;4997042;28;20022;-78
2022/05/19 04:36:10;;;;;;;5.90;4.95;;;23.10;57.90;;;;;;5009544;28;20060;-76
2022/05/19 04:38:36;;;;;;;6.82;5.40;;;23.10;57.90;;;;;;5022442;28;20026;-77
2022/05/19 04:41:04;;;;;;;5.72;4.75;;;23.10;57.90;;;;;;5018410;28;20838;-77
2022/05/19 04:43:29;;;;;;;5.68;4.60;;;23.10;58.00;;;;;;5019208;28;20495;-77
2022/05/19 04:45:56;;;;;;;5.63;4.65;;;23.10;58.00;;;;;;5018743;28;20064;-77
2022/05/19 04:48:24;;;;;;;6.35;4.85;;;23.00;58.00;;;;;;5027977;28;20021;-77
2022/05/19 04:50:52;;;;;;;6.30;4.80;;;23.00;58.00;;;;;;5020236;28;20066;-78
2022/05/19 04:53:18;;;;;;;5.47;4.47;;;23.00;57.90;;;;;;5013868;28;20040;-77
2022/05/19 04:55:44;;;;;;;5.70;4.82;;;23.00;58.00;;;;;;5029134;28;20029;-77
2022/05/19 04:58:10;;;;;;;5.65;4.55;;;23.00;58.00;;;;;;5019644;28;20497;-76
2022/05/19 05:00:37;;;;;;;5.57;4.75;;;23.00;58.00;;;;;;5027800;28;20041;-76
2022/05/19 05:03:04;;;;;;;6.00;4.70;;;23.00;58.00;;;;;;5020146;28;20033;-77
2022/05/19 05:05:30;;;;;;;5.43;4.32;;;23.00;58.00;;;;;;5026731;28;20026;-77
2022/05/19 05:07:56;;;;;;;5.13;3.88;;;23.00;58.00;;;;;;5024247;28;20478;-77
2022/05/19 05:10:23;;;;;;;4.78;3.95;;;23.00;58.00;;;;;;5031046;28;20038;-76
2022/05/19 05:12:49;;;;;;;5.20;4.07;;;23.00;58.00;;;;;;5013305;28;20482;-76
2022/05/19 05:15:15;;;;;;;5.35;4.07;;;23.00;58.00;;;;;;5014962;28;20033;-77
2022/05/19 05:17:40;;;;;;;5.32;4.13;;;23.00;58.00;;;;;;5013048;28;20470;-77
2022/05/19 05:20:08;;;;;;;4.80;3.80;;;23.00;58.00;;;;;;5030943;28;20037;-77
2022/05/19 05:22:36;;;;;;;5.20;3.70;;;23.00;58.00;;;;;;5028801;28;20025;-77
2022/05/19 05:25:09;;;;;;;4.13;3.38;;;23.00;58.00;;;;;;5012827;28;20060;-76
2022/05/19 05:27:36;;;;;;;4.30;3.30;;;23.00;58.00;;;;;;5029374;28;20021;-76
2022/05/19 05:30:04;;;;;;;4.30;3.40;;;23.00;58.00;;;;;;5044542;28;20040;-77
2022/05/19 05:32:29;;;;;;;5.07;3.90;;;23.00;58.00;;;;;;5022979;28;20026;-76
2022/05/19 05:34:55;;;;;;;4.55;3.33;;;23.00;58.00;;;;;;5007437;28;20038;-76
2022/05/19 05:37:22;;;;;;;4.15;2.95;;;23.00;58.00;;;;;;5015115;28;20034;-76
2022/05/19 05:39:48;;;;;;;3.60;3.08;;;23.00;58.00;;;;;;5013839;28;20038;-77
2022/05/19 05:42:14;;;;;;;4.00;3.10;;;23.00;58.00;;;;;;5027960;28;20044;-76
2022/05/19 05:44:39;;;;;;;4.00;3.15;;;23.00;58.00;;;;;;5055755;28;20116;-77
2022/05/19 05:47:05;;;;;;;4.85;2.97;;;23.00;58.10;;;;;;5031809;28;20038;-77
2022/05/19 05:49:31;;;;;;;4.40;2.83;;;23.00;58.70;;;;;;5000772;28;20125;-77
2022/05/19 05:51:56;;;;;;;2.90;2.33;;;23.00;58.10;;;;;;5029263;28;20052;-77
2022/05/19 05:54:22;;;;;;;3.42;2.55;;;23.00;58.10;;;;;;5024226;28;20037;-77
2022/05/19 05:56:48;;;;;;;3.70;2.63;;;23.00;58.10;;;;;;5007235;28;20057;-78
2022/05/19 05:59:14;;;;;;;3.60;2.40;;;23.00;58.10;;;;;;5046243;28;20057;-76
2022/05/19 06:01:39;;;;;;;3.40;2.55;;;23.00;58.10;;;;;;5005888;28;20037;-77
2022/05/19 06:04:05;;;;;;;4.50;2.38;;;23.00;58.10;;;;;;5021560;28;20033;-77
2022/05/19 06:06:31;;;;;;;3.65;2.33;;;23.00;58.20;;;;;;4998642;28;20030;-77
2022/05/19 06:08:57;;;;;;;3.78;2.33;;;23.00;58.20;;;;;;5021317;28;20025;-77
2022/05/19 06:11:23;;;;;;;2.25;1.95;;;23.00;58.20;;;;;;5028696;28;20056;-78
2022/05/19 06:13:52;;;;;;;2.55;2.20;;;23.00;58.20;;;;;;5046807;28;20033;-77
2022/05/19 06:16:18;;;;;;;2.53;2.03;;;23.00;58.20;;;;;;5030337;28;20029;-77
2022/05/19 06:18:43;;;;;;;2.10;1.90;;;23.00;58.30;;;;;;5031251;28;20124;-76
2022/05/19 06:21:09;;;;;;;2.90;1.92;;;23.00;58.30;;;;;;5029417;28;20271;-76
2022/05/19 06:23:35;;;;;;;3.30;2.30;;;23.00;58.30;;;;;;4989779;28;20038;-77
2022/05/19 06:26:02;;;;;;;2.83;2.30;;;23.00;58.30;;;;;;5029713;28;20068;-77
2022/05/19 06:28:28;;;;;;;2.25;1.80;;;23.00;58.30;;;;;;5030388;28;20041;-78
2022/05/19 06:30:55;;;;;;;2.72;2.10;;;23.10;58.30;;;;;;5028801;28;20399;-77
2022/05/19 06:33:22;;;;;;;2.28;1.85;;;23.10;58.30;;;;;;5015912;28;20029;-78
2022/05/19 06:35:48;;;;;;;2.88;1.95;;;23.10;58.30;;;;;;5030398;28;20032;-78
2022/05/19 06:38:15;;;;;;;1.75;1.55;;;23.10;58.30;;;;;;5026436;28;20029;-77
2022/05/19 06:40:41;;;;;;;2.33;1.60;;;23.10;58.30;;;;;;5021791;28;20033;-77
2022/05/19 06:43:15;;;;;;;2.05;1.75;;;23.10;58.30;;;;;;5029416;28;20113;-77
2022/05/19 06:45:45;;;;;;;2.53;1.90;;;23.10;58.30;;;;;;5043311;28;20494;-77
2022/05/19 06:48:11;;;;;;;2.65;1.98;;;23.20;58.40;;;;;;5023645;28;20557;-77
2022/05/19 06:50:37;;;;;;;2.35;1.92;;;23.20;58.30;;;;;;5025256;28;20082;-78
2022/05/19 06:53:04;;;;;;;2.20;1.80;;;23.20;58.30;;;;;;5017948;28;20037;-77
2022/05/19 06:55:32;;;;;;;1.83;1.40;;;23.20;58.30;;;;;;5013382;28;20030;-77
2022/05/19 06:57:59;;;;;;;2.03;1.60;;;23.20;58.40;;;;;;5026544;28;20033;-77
2022/05/19 07:00:27;;;;;;;2.15;1.45;;;23.20;58.40;;;;;;5029077;28;20030;-77
2022/05/19 07:02:59;;;;;;;1.98;1.63;;;23.20;58.40;;;;;;5023848;28;20068;-78
2022/05/19 07:05:31;;;;;;;2.03;1.50;;;23.30;58.50;;;;;;5046395;28;20556;-77
2022/05/19 07:07:57;;;;;;;1.50;1.40;;;23.30;58.50;;;;;;5026376;28;20055;-77
2022/05/19 07:10:26;;;;;;;1.63;1.33;;;23.30;58.40;;;;;;5024407;28;20065;-77
2022/05/19 07:12:52;;;;;;;1.38;1.27;;;23.30;58.50;;;;;;5024107;28;20091;-76
2022/05/19 07:15:19;;;;;;;1.90;1.70;;;23.30;58.50;;;;;;5016456;28;20121;-77
2022/05/19 07:17:46;;;;;;;2.35;1.60;;;23.30;58.60;;;;;;5029540;28;20505;-77
2022/05/19 07:22:56;;;;;;;2.63;1.63;;;23.40;58.60;;;;;;5026476;28;20521;-78
2022/05/19 07:25:22;;;;;;;1.85;1.35;;;23.40;58.60;;;;;;5003156;28;20413;-77
2022/05/19 07:27:48;;;;;;;1.70;1.42;;;23.40;58.60;;;;;;5013968;28;20076;-78
2022/05/19 07:30:14;;;;;;;3.03;1.70;;;23.40;58.70;;;;;;5018962;28;20165;-77
2022/05/19 07:32:41;;;;;;;1.33;1.20;;;23.50;58.70;;;;;;5041635;28;20018;-77
2022/05/19 07:35:08;;;;;;;1.50;1.40;;;23.50;58.70;;;;;;5012918;28;20022;-77
2022/05/19 07:37:34;;;;;;;1.73;1.52;;;23.50;58.70;;;;;;5018476;28;20068;-77
2022/05/19 07:40:00;;;;;;;1.40;1.30;;;23.50;58.70;;;;;;5026057;28;20037;-77
2022/05/19 07:42:26;;;;;;;1.67;1.42;;;23.60;58.80;;;;;;5040491;28;20087;-77
2022/05/19 07:44:52;;;;;;;1.90;1.35;;;23.60;58.80;;;;;;5009405;28;20034;-77
2022/05/19 07:47:19;;;;;;;1.67;1.50;;;23.60;58.80;;;;;;5022432;28;20029;-78
2022/05/19 07:49:45;;;;;;;1.88;1.45;;;23.60;58.70;;;;;;5028975;28;20037;-77
2022/05/19 07:52:12;;;;;;;2.97;1.50;;;23.70;58.80;;;;;;5020837;28;20128;-77
2022/05/19 07:54:38;;;;;;;1.20;1.10;;;23.70;58.70;;;;;;5021882;28;20482;-77
2022/05/19 07:57:06;;;;;;;1.55;1.23;;;23.70;58.70;;;;;;5027362;28;20498;-77
2022/05/19 07:59:33;;;;;;;2.15;1.30;;;23.80;58.80;;;;;;5028151;28;20025;-78
2022/05/19 08:02:01;;;;;;;2.20;1.48;;;23.80;58.70;;;;;;5012008;28;20033;-78
2022/05/19 08:04:27;;;;;;;1.83;1.45;;;23.80;58.70;;;;;;5029599;28;20034;-77
2022/05/19 08:06:53;;;;;;;1.60;1.40;;;23.80;58.70;;;;;;5028257;28;20025;-78
2022/05/19 08:12:05;;;;;;;1.50;1.40;;;23.90;58.70;;;;;;5026778;28;20116;-77
2022/05/19 08:17:19;;;;;;;2.08;1.40;;;24.00;58.80;;;;;;5028748;28;20037;-77
2022/05/19 08:19:47;;;;;;;1.40;1.30;;;24.00;58.70;;;;;;5027701;28;20040;-77
2022/05/19 08:22:13;;;;;;;1.48;1.30;;;24.00;58.70;;;;;;5025526;28;20037;-77
2022/05/19 08:24:39;;;;;;;1.20;1.10;;;24.10;58.70;;;;;;5025705;28;20379;-77
2022/05/19 08:27:06;;;;;;;1.52;1.42;;;24.10;58.70;;;;;;5026046;28;20444;-78
2022/05/19 08:29:32;;;;;;;1.55;1.40;;;24.10;58.70;;;;;;5007270;28;20025;-78
2022/05/19 08:31:58;;;;;;;1.48;1.38;;;24.20;58.80;;;;;;5012143;28;20108;-77
2022/05/19 08:34:24;;;;;;;1.60;1.27;;;24.20;58.80;;;;;;5058110;28;20175;-78
2022/05/19 08:36:50;;;;;;;1.30;1.20;;;24.30;58.90;;;;;;5009109;28;20120;-78
2022/05/19 08:39:18;;;;;;;1.73;1.48;;;24.30;59.00;;;;;;5021486;28;20033;-78
2022/05/19 08:41:52;;;;;;;1.77;1.52;;;24.40;59.00;;;;;;5010127;28;20037;-78
2022/05/19 08:44:33;;;;;;;1.45;1.30;;;24.40;59.00;;;;;;5025332;28;20061;-79
2022/05/19 08:47:02;;;;;;;2.05;1.52;;;24.50;59.00;;;;;;5024683;28;20105;-78
2022/05/19 08:49:58;;;;;;;1.88;1.48;;;24.60;58.90;;;;;;5025295;28;20026;-79
2022/05/19 08:52:26;;;;;;;1.90;1.40;;;24.70;59.00;;;;;;5024116;28;20040;-78
2022/05/19 08:54:56;;;;;;;1.90;1.60;;;24.80;58.90;;;;;;5023085;28;20033;-78
2022/05/19 08:57:26;;;;;;;1.80;1.38;;;24.80;58.90;;;;;;5018350;28;20041;-78
2022/05/19 09:00:09;;;;;;;2.33;1.65;;;24.90;58.90;;;;;;5024954;28;20057;-77
2022/05/19 09:02:39;;;;;;;1.73;1.55;;;25.00;58.80;;;;;;5026794;28;20037;-77
2022/05/19 09:05:23;;;;;;;2.38;1.67;;;25.10;58.70;;;;;;5025689;28;20040;-77
2022/05/19 09:07:56;;;;;;;1.52;1.42;;;25.10;58.60;;;;;;5023161;28;20021;-77
2022/05/19 09:10:38;;;;;;;2.75;1.70;;;25.20;58.60;;;;;;5023191;28;20122;-77
2022/05/19 09:13:09;;;;;;;2.17;1.50;;;25.30;58.60;;;;;;5019269;28;20029;-77
2022/05/19 09:15:36;;;;;;;2.03;1.60;;;25.40;58.50;;;;;;5028823;28;20038;-77
2022/05/19 09:18:02;;;;;;;2.38;1.55;;;25.50;58.40;;;;;;5023542;28;20042;-78
2022/05/19 09:20:37;;;;;;;1.83;1.60;;;25.60;58.40;;;;;;5024831;28;20029;-77
2022/05/19 09:23:04;;;;;;;3.05;1.75;;;25.70;58.40;;;;;;5019435;28;20033;-77
2022/05/19 09:25:30;;;;;;;2.40;1.90;;;25.80;58.20;;;;;;5020125;28;20557;-77
2022/05/19 09:27:59;;;;;;;2.78;1.80;;;25.80;58.10;;;;;;5023498;28;20065;-77
2022/05/19 09:30:41;;;;;;;1.88;1.70;;;25.90;58.10;;;;;;5026546;28;20080;-77
2022/05/19 09:33:15;;;;;;;2.20;1.83;;;26.00;58.20;;;;;;5024055;28;20030;-78
2022/05/19 09:35:47;;;;;;;2.30;1.98;;;26.10;58.00;;;;;;5023728;28;20671;-77
2022/05/19 09:38:30;;;;;;;2.20;1.70;;;26.20;58.00;;;;;;5026492;28;20080;-76
2022/05/19 09:41:05;;;;;;;2.33;1.83;;;26.30;58.00;;;;;;5024408;28;20053;-77
2022/05/19 09:43:36;;;;;;;2.15;1.50;;;26.40;57.90;;;;;;5024095;28;20034;-77
2022/05/19 09:46:14;;;;;;;2.33;2.00;;;26.40;57.80;;;;;;5027762;28;20026;-77
2022/05/19 09:48:48;;;;;;;2.25;1.70;;;26.50;57.70;;;;;;5013597;28;20053;-77
2022/05/19 09:51:17;;;;;;;1.95;1.75;;;26.60;57.70;;;;;;5026715;28;20052;-76
2022/05/19 09:53:52;;;;;;;2.17;1.90;;;26.70;57.60;;;;;;5033676;28;20541;-77
2022/05/19 09:56:20;;;;;;;3.33;1.92;;;26.80;57.60;;;;;;5020932;28;20041;-77
2022/05/19 09:58:53;;;;;;;2.28;1.80;;;26.80;57.40;;;;;;5023804;28;20476;-76
2022/05/19 10:01:25;;;;;;;2.17;1.85;;;26.90;57.40;;;;;;5022323;28;20116;-77
2022/05/19 10:03:58;;;;;;;3.03;2.08;;;27.00;57.30;;;;;;5058638;28;20045;-77
2022/05/19 10:06:39;;;;;;;2.60;1.88;;;27.00;57.20;;;;;;5026061;28;20028;-77
2022/05/19 10:09:15;;;;;;;2.60;2.08;;;27.10;57.20;;;;;;5021650;28;20025;-76
2022/05/19 10:11:51;;;;;;;2.30;1.83;;;27.20;57.10;;;;;;5025676;28;20049;-77
2022/05/19 10:14:24;;;;;;;2.50;1.92;;;27.30;57.00;;;;;;5019354;28;20441;-77
2022/05/19 10:17:27;;;;;;;2.35;2.05;;;27.30;56.90;;;;;;5023535;28;20036;-77
2022/05/19 10:20:03;;;;;;;2.30;1.70;;;27.40;56.90;;;;;;5024308;28;20072;-77
2022/05/19 10:22:39;;;;;;;2.85;2.05;;;27.40;56.80;;;;;;5029176;28;20033;-77
2022/05/19 10:25:14;;;;;;;2.60;2.05;;;27.40;56.70;;;;;;5019161;28;20067;-77
2022/05/19 10:31:13;;;;;;;3.15;2.05;;;27.60;57.40;;;;;;5016042;28;20054;-77
2022/05/19 10:34:10;;;;;;;1.98;1.70;;;27.60;56.70;;;;;;5022449;28;20112;-76
2022/05/19 10:36:45;;;;;;;2.10;1.80;;;27.70;56.80;;;;;;5019649;28;20603;-77
2022/05/19 10:39:17;;;;;;;2.20;1.65;;;27.70;56.60;;;;;;5022757;28;20025;-76
2022/05/19 10:41:52;;;;;;;1.92;1.58;;;27.80;56.70;;;;;;5005092;28;20438;-77
2022/05/19 10:44:52;;;;;;;1.83;1.63;;;27.80;56.60;;;;;;5016524;28;20478;-77
2022/05/19 10:47:18;;;;;;;2.10;1.67;;;27.90;56.70;;;;;;5022743;28;20033;-77
2022/05/19 10:49:59;;;;;;;2.03;1.77;;;27.90;56.50;;;;;;5029807;28;20037;-77
2022/05/19 10:53:00;;;;;;;1.98;1.67;;;28.00;56.50;;;;;;5022855;28;20014;-77
2022/05/19 10:55:41;;;;;;;2.10;1.75;;;28.00;56.50;;;;;;5031277;28;20044;-77
2022/05/19 10:58:31;;;;;;;2.08;1.60;;;28.10;56.50;;;;;;5028276;28;20482;-78
2022/05/19 11:01:18;;;;;;;2.17;1.70;;;28.20;56.40;;;;;;5021276;28;20041;-78
2022/05/19 11:04:01;;;;;;;1.73;1.55;;;28.20;56.30;;;;;;5028186;28;20135;-77
2022/05/19 11:06:29;;;;;;;2.47;1.83;;;28.30;56.30;;;;;;5004978;28;20021;-77
2022/05/19 11:09:13;;;;;;;2.25;1.85;;;28.30;56.10;;;;;;5027087;28;20030;-77
2022/05/19 11:11:54;;;;;;;2.03;1.83;;;28.40;56.20;;;;;;5039812;28;20076;-77
2022/05/19 11:14:52;;;;;;;2.42;1.90;;;28.40;56.10;;;;;;5027497;28;20545;-76
2022/05/19 11:17:44;;;;;;;2.13;1.80;;;28.50;56.20;;;;;;5003169;28;20099;-78
2022/05/19 11:20:16;;;;;;;1.95;1.65;;;28.60;56.20;;;;;;5032745;28;20045;-77
2022/05/19 11:22:43;;;;;;;2.67;1.80;;;28.60;56.10;;;;;;5054293;28;20188;-77
2022/05/19 11:28:05;;;;;;;2.50;2.08;;;28.70;56.10;;;;;;5023454;28;20032;-77
2022/05/19 11:30:39;;;;;;;1.63;1.52;;;28.70;56.00;;;;;;5019852;28;20026;-77
2022/05/19 11:33:08;;;;;;;2.08;1.55;;;28.70;56.00;;;;;;5027936;28;20037;-77
2022/05/19 11:35:54;;;;;;;2.42;1.70;;;28.80;56.10;;;;;;5025686;28;20461;-77
2022/05/19 11:38:22;;;;;;;1.88;1.45;;;28.80;56.10;;;;;;5003360;28;20075;-77
2022/05/19 11:40:55;;;;;;;1.70;1.40;;;28.80;56.00;;;;;;5025382;28;20037;-77
2022/05/19 11:43:28;;;;;;;1.90;1.70;;;28.90;56.00;;;;;;5000857;28;20331;-76
2022/05/19 11:46:08;;;;;;;3.35;1.70;;;28.90;56.00;;;;;;5022230;28;20048;-77
2022/05/19 11:55:19;;;;;;;1.90;1.60;;;28.90;56.30;;;;;;4984303;28;20026;-77
2022/05/19 11:58:11;;;;;;;1.88;1.60;;;28.90;56.10;;;;;;5003556;28;20039;-77
2022/05/19 12:00:52;;;;;;;2.45;1.60;;;28.90;56.30;;;;;;5023216;28;20029;-77
2022/05/19 12:03:43;;;;;;;1.95;1.55;;;28.90;56.20;;;;;;5024076;28;20104;-78
2022/05/19 12:11:33;;;;;;;2.53;1.83;;;28.90;56.30;;;;;;5018108;23;19918;-76
2022/05/19 12:14:10;;;;;;;1.70;1.60;;;28.90;56.40;;;;;;4971338;28;20023;-76
2022/05/19 12:17:12;;;;;;;2.55;2.00;;;28.90;56.50;;;;;;4970193;28;20038;-77
2022/05/19 12:19:38;;;;;;;2.05;1.85;;;28.90;56.70;;;;;;4971573;28;20139;-76
2022/05/19 12:22:22;;;;;;;2.08;1.77;;;28.90;56.60;;;;;;4972254;28;20474;-76
2022/05/19 12:24:52;;;;;;;2.90;1.88;;;28.80;56.70;;;;;;4971460;28;20023;-77
2022/05/19 12:27:23;;;;;;;3.22;1.75;;;28.80;56.70;;;;;;4970499;28;20069;-76
2022/05/19 12:30:00;;;;;;;3.25;1.73;;;28.80;56.70;;;;;;4970565;28;20474;-74
2022/05/19 12:32:35;;;;;;;2.95;1.52;;;28.70;56.80;;;;;;4970793;28;20033;-75
2022/05/19 12:35:10;;;;;;;2.85;1.70;;;28.70;56.80;;;;;;4970746;28;20042;-75
2022/05/19 12:37:51;;;;;;;2.90;1.50;;;28.70;56.90;;;;;;4954075;28;20035;-75
2022/05/19 12:40:49;;;;;;;2.63;1.30;;;28.60;56.90;;;;;;4981073;28;20038;-76
2022/05/19 12:43:21;;;;;;;2.38;1.10;;;28.60;56.90;;;;;;4960858;28;20042;-75
2022/05/19 12:45:51;;;;;;;1.45;0.90;;;28.50;56.90;;;;;;4970310;28;20023;-74
2022/05/19 12:48:18;;;;;;;1.52;1.00;;;28.40;56.90;;;;;;4964698;28;20490;-75
2022/05/19 12:50:51;;;;;;;2.65;1.20;;;28.40;56.90;;;;;;4970192;28;20027;-75
2022/05/19 12:53:23;;;;;;;2.03;1.13;;;28.30;56.90;;;;;;4952693;28;20391;-74
2022/05/19 12:55:55;;;;;;;2.10;1.10;;;28.30;56.90;;;;;;4969563;28;20031;-75
2022/05/19 12:58:37;;;;;;;1.73;1.00;;;28.20;56.90;;;;;;4969370;28;20023;-76
2022/05/19 13:01:24;;;;;;;2.13;0.90;;;28.10;56.90;;;;;;4971340;28;20026;-74
2022/05/19 13:04:10;;;;;;;2.25;1.10;;;28.00;56.80;;;;;;4969136;28;20041;-74
2022/05/19 13:06:56;;;;;;;2.15;1.13;;;27.90;56.90;;;;;;4981469;28;20348;-74
2022/05/19 13:09:26;;;;;;;2.38;1.00;;;27.90;56.90;;;;;;4968902;28;20037;-74
2022/05/19 13:11:55;;;;;;;2.22;1.20;;;27.80;56.90;;;;;;4969014;28;20073;-74
2022/05/19 13:14:29;;;;;;;1.13;0.88;;;27.70;56.90;;;;;;4970393;28;20042;-74
2022/05/19 13:16:55;;;;;;;;;;;27.60;56.90;;;;;;4969568;28;20031;-74
2022/05/19 13:19:29;;;;;;;2.53;1.00;;;27.50;56.90;;;;;;4969393;28;19906;-74
2022/05/19 13:22:02;;;;;;;1.90;1.10;;;27.50;56.60;;;;;;4983707;28;20046;-74
2022/05/19 13:24:33;;;;;;;1.70;1.10;;;27.40;56.50;;;;;;4970381;28;20031;-74
2022/05/19 13:32:35;;;;;;;2.13;1.25;;;27.10;56.20;;;;;;4973283;28;20030;-74
2022/05/19 13:35:20;;;;;;;1.85;1.10;;;27.00;56.20;;;;;;4973469;28;20034;-74
2022/05/19 13:37:48;;;;;;;2.20;1.27;;;26.90;56.30;;;;;;4973189;28;20126;-74
2022/05/19 13:40:29;;;;;;;1.85;1.15;;;26.80;56.20;;;;;;4972486;28;20030;-74